Cockrell Hill, Texas
Current Conditions -  °F | °C
As of 2:53 AM on Friday 24 Oct 2014 (Local Time) from KRBD Reporting Station
Broken Clouds Broken Clouds  
Wind Chill: 64°   Ceiling: 6000
Heat Index: 64°   Visibility: 10mi
Dew Point: 56°   Wind: 6mph
Humidity: 75%   Direction: 170°S
Pressure: 30.11"   Gusts: NA
Location:  32.7371°N, 96.9045°W
Report Text: KRBD 240753Z 17005KT 10SM BKN060 18/13 A3011 RMK AO2 SLP189 T01780133
Loading
Personal Weather Stations






























Interactive Weather Map New forecast layout! Learn more

10-Day Weather Forecast

Advertisements
Track Severe Weather on mobile